Terminal Aerodrome Forecast
Issued by NWS

Home | Current Version | Previous Version | Text Only | Print | Product List | Glossary On
Versions: 1 2 3 4 5 6 7 8 9 10 11 12 13 14 15 16 17
000
FTUS46 KSGX 132300
TAFSNA
TAF
KSNA 132320Z 1400/1424 22011KT P6SM SCT150
     FM140300 VRB04KT P6SM SCT012 SCT150
     FM141200 VRB04KT P6SM BKN012 BKN150
     FM141600 21010KT P6SM SCT015 BKN120=

USA.gov is the U.S. government's official web portal to all federal, state and local government web resources and services.